Terminal Aerodrome Forecast
Issued by NWS St Louis, MO

Home | Current Version | Previous Version | Text Only | Print | Product List | Glossary On
Versions: 1 2 3 4 5 6 7 8 9 10 11 12
000
FTUS43 KLSX 210520
TAFCOU
TAF
KCOU 210520Z 2106/2206 01007KT P6SM BKN250
     FM212200 06009KT P6SM VCSH OVC070
     FM220100 06008KT P6SM -RA OVC050
     FM220400 07012G19KT P6SM -RA OVC035=

USA.gov is the U.S. government's official web portal to all federal, state and local government web resources and services.